Ελευσίνα, Ελλάδα

11:25 PM EEST on Αύγουστος 20, 2014 (GMT +0300)
Elefsis Air Base | Change Station
CLOSE
Current Station
Airport
Location: Elefsis,
Elevation: 102 ft
Nearby Weather Stations

Elev 102 ft 38.06 °N, 23.56 °E | Updated 35 minutes ago

Clear
Αίθριος
77 ° F
Feels Like 77 ° F
N
7
Ανεμος Μεταβλητός Ανεμος from ΒΒΔ

Σήμερα
High -- | Low -- ° F
--% Chance of Precip.
Yesterday
High -- | Low -- ° F
Precip. -- in
6:44 AM 8:12 PM
Μηνίσκος, 19% visible
Ατμοσφαιρική Πίεση 29.98 in
Ορατότητα -9999.0 Μίλια
Σύννεφα
Σημείο Δρόσου 63 ° F
Υγρασία 61%
Rainfall 0.00 in
Snow Depth Not available.
Υπεριώδης ακτινοβολία (UV) Not available.
Pollen Not available.
Air Quality Not available.
Flu Activity Not available.
METAR LGEL 201950Z 33006KT CAVOK 25/17 Q1015 NOSIG

More Conditions Fewer Conditions

Ατμοσφαιρική Πίεση 29.98 in
Ορατότητα -9999.0 Μίλια
Σύννεφα
Σημείο Δρόσου 63 ° F
Υγρασία 61%
Rainfall 0.00 in
Snow Depth Not available.
Υπεριώδης ακτινοβολία (UV) Not available.
Pollen Not available.
Air Quality Not available.
Flu Activity Not available.
METAR LGEL 201950Z 33006KT CAVOK 25/17 Q1015 NOSIG

More Conditions Fewer Conditions

10-Day Weather Forecast

Almanac

Αστρονομία

Aug. 20, 2014 Rise Set
Actual Time 6:44 AM EEST 8:12 PM EEST
Civil Twilight 6:17 AM EEST 8:40 PM EEST
Nautical Twilight 5:43 AM EEST 9:13 PM EEST
Astronomical Twilight 5:08 AM EEST 9:48 PM EEST
Moon 2:11 AM EEST 4:41 PM EEST
Length Of Visible Light 14h 23m
Διάρκεια ημέρας
13h 27m
Tomorrow will be 2m 14s shorter.
Μηνίσκος, 19% of the Moon is Illuminated
Σήμερα
Μηνίσκος
Aug 25
New
Sep 2
Πρώτο τέταρτο
Sep 8
Πανσέληνος
Sep 15
Τελευταίο τέταρτο

Today's Extremes

Country Highs Country Lows

Community

WunderPhotos

Upload Photos

1,745,750 photos uploaded!

WunderBlogs® & News

By Dr. Jeff Masters
Director of Meteorology, Weather Underground
By Kari Strenfel
Meteorologist, Weather Underground
By Christopher C. Burt
Weather Historian, Weather Underground
August 20, 2014
August 20, 2014
August 20, 2014

Nearby

Snow Depth

Not available.

Earthquake Activity

City Distance Mag. Time & Date
No recent earthquake activity has been reported nearby.
Minimum magnitude displayed is 2.5.

Coastal Water Temperatures

Τοποθεσία Θερμοκρασία
No Stations Reporting

Nearby Weather Stations